Time;durP1;ratioP1;P1;durP2;ratioP2;P2;SDS_P1;SDS_P2;PMS_P1;PMS_P2;Temp;Humidity;BMP_temperature;BMP_pressure;BME280_temperature;BME280_humidity;BME280_pressure;Samples;Min_cycle;Max_cycle;Signal;HPM_P1;HPM_P2
2022/12/22 03:26:44;;;;;;;25.02;9.05;;;;;;;;;;5062713;28;20036;-87
2022/12/22 03:29:12;;;;;;;24.38;8.23;;;;;;;;;;5079008;28;20063;-87
2022/12/22 03:31:45;;;;;;;21.30;8.82;;;;;;;;;;5073923;28;20114;-87
2022/12/22 03:34:12;;;;;;;24.13;8.30;;;;;;;;;;5062991;28;20043;-87
2022/12/22 03:37:30;;;;;;;18.95;7.93;;;;;;;;;;5082682;28;20398;-87
2022/12/22 03:39:58;;;;;;;20.65;8.48;;;;;;;;;;5064516;28;20044;-87
2022/12/22 03:48:03;;;;;;;16.60;8.38;;;;;;;;;;5045425;28;20080;-88
2022/12/22 03:50:30;;;;;;;15.90;7.15;;;;;;;;;;5079393;28;20683;-87
2022/12/22 03:52:58;;;;;;;16.58;7.28;;;;;;;;;;5063943;28;20119;-88
2022/12/22 03:55:26;;;;;;;15.82;6.72;;;;;;;;;;5081641;28;20046;-87
2022/12/22 03:57:54;;;;;;;18.40;7.40;;;;;;;;;;5076716;28;20040;-87
2022/12/22 04:00:22;;;;;;;16.55;7.15;;;;;;;;;;5083680;28;20029;-87
2022/12/22 04:02:50;;;;;;;19.15;7.90;;;;;;;;;;5064953;28;20029;-87
2022/12/22 04:05:44;;;;;;;15.32;6.88;;;;;;;;;;5067882;28;20046;-87
2022/12/22 04:08:12;;;;;;;18.33;7.38;;;;;;;;;;5067647;28;20131;-87
2022/12/22 04:14:16;;;;;;;13.90;6.65;;;;;;;;;;5079903;28;20114;-88
2022/12/22 04:16:56;;;;;;;17.63;7.45;;;;;;;;;;5085324;28;20721;-87
2022/12/22 04:19:24;;;;;;;21.33;8.13;;;;;;;;;;5086368;28;20028;-88
2022/12/22 04:21:53;;;;;;;17.40;7.35;;;;;;;;;;5074101;28;20071;-86
2022/12/22 04:24:21;;;;;;;18.35;7.93;;;;;;;;;;5068575;28;20079;-87
2022/12/22 04:26:54;;;;;;;17.02;7.45;;;;;;;;;;5068210;28;20040;-87
2022/12/22 04:29:26;;;;;;;15.32;7.35;;;;;;;;;;5080589;28;20983;-87
2022/12/22 04:31:54;;;;;;;19.63;7.72;;;;;;;;;;5076595;28;20042;-87
2022/12/22 04:34:46;;;;;;;22.80;7.78;;;;;;;;;;5049444;28;21056;-87
2022/12/22 04:37:18;;;;;;;21.33;7.28;;;;;;;;;;5045951;28;20112;-87
2022/12/22 04:39:46;;;;;;;19.08;8.30;;;;;;;;;;5060561;28;20089;-88
2022/12/22 04:42:14;;;;;;;17.52;7.38;;;;;;;;;;5065713;28;20686;-87
2022/12/22 04:44:46;;;;;;;18.70;7.75;;;;;;;;;;5083377;28;20040;-87
2022/12/22 04:47:14;;;;;;;19.17;8.15;;;;;;;;;;5078941;28;20101;-87
2022/12/22 04:49:42;;;;;;;20.00;7.75;;;;;;;;;;5063759;28;20635;-87
2022/12/22 04:52:10;;;;;;;14.70;6.90;;;;;;;;;;5083777;28;20036;-87
2022/12/22 04:54:43;;;;;;;15.82;7.05;;;;;;;;;;5049377;28;20072;-87
2022/12/22 04:57:10;;;;;;;14.70;6.78;;;;;;;;;;5081972;28;20059;-87
2022/12/22 04:59:38;;;;;;;15.95;6.90;;;;;;;;;;5066003;28;20028;-87
2022/12/22 05:02:06;;;;;;;16.60;7.72;;;;;;;;;;5082180;28;20068;-86
2022/12/22 05:04:44;;;;;;;15.20;6.80;;;;;;;;;;5068953;28;20039;-87
2022/12/22 05:07:12;;;;;;;22.33;7.25;;;;;;;;;;5080800;28;20041;-87
2022/12/22 05:10:05;;;;;;;16.55;6.55;;;;;;;;;;5071043;28;20071;-87
2022/12/22 05:12:58;;;;;;;15.77;7.88;;;;;;;;;;5076283;28;20039;-87
2022/12/22 05:15:32;;;;;;;17.38;7.22;;;;;;;;;;5064870;28;20044;-87
2022/12/22 05:18:01;;;;;;;16.30;7.32;;;;;;;;;;5051767;28;20041;-86
2022/12/22 05:20:28;;;;;;;20.13;7.43;;;;;;;;;;5080342;28;20397;-87
2022/12/22 05:22:57;;;;;;;17.63;7.93;;;;;;;;;;5061238;28;20048;-87
2022/12/22 05:25:24;;;;;;;17.88;8.68;;;;;;;;;;5086611;28;20037;-87
2022/12/22 05:27:58;;;;;;;16.35;7.35;;;;;;;;;;5083852;28;20040;-87
2022/12/22 05:30:26;;;;;;;19.58;8.48;;;;;;;;;;5085812;28;20047;-87
2022/12/22 05:33:19;;;;;;;20.60;8.40;;;;;;;;;;5065656;28;20037;-87
2022/12/22 05:35:46;;;;;;;21.20;8.23;;;;;;;;;;5085646;28;20036;-87
2022/12/22 05:38:39;;;;;;;19.63;7.18;;;;;;;;;;5080411;28;20042;-87
2022/12/22 05:41:07;;;;;;;19.80;8.07;;;;;;;;;;5071647;28;20036;-87
2022/12/22 05:44:00;;;;;;;20.75;8.27;;;;;;;;;;5063700;28;20510;-87
2022/12/22 05:46:32;;;;;;;23.15;7.97;;;;;;;;;;5061887;28;20056;-87
2022/12/22 05:49:00;;;;;;;20.90;8.55;;;;;;;;;;5060426;28;20062;-87
2022/12/22 05:51:28;;;;;;;19.83;8.70;;;;;;;;;;5064006;28;20040;-87
2022/12/22 05:53:56;;;;;;;22.00;8.35;;;;;;;;;;5078748;28;20091;-87
2022/12/22 05:56:25;;;;;;;19.42;8.25;;;;;;;;;;5074828;28;20124;-87
2022/12/22 05:58:52;;;;;;;19.20;8.52;;;;;;;;;;5078600;28;20036;-87
2022/12/22 06:01:24;;;;;;;19.00;8.20;;;;;;;;;;5059840;28;20040;-87
2022/12/22 06:03:52;;;;;;;21.10;8.85;;;;;;;;;;5076147;28;20036;-87
2022/12/22 06:06:44;;;;;;;20.95;8.73;;;;;;;;;;5077326;28;20059;-87
2022/12/22 06:09:12;;;;;;;18.42;8.25;;;;;;;;;;5048399;28;20060;-87
2022/12/22 06:11:40;;;;;;;22.70;9.48;;;;;;;;;;5081460;28;20100;-88
2022/12/22 06:14:08;;;;;;;20.95;8.93;;;;;;;;;;5065455;28;20429;-87
2022/12/22 06:16:40;;;;;;;24.55;10.70;;;;;;;;;;5081173;28;20040;-87
2022/12/22 06:19:08;;;;;;;21.73;9.30;;;;;;;;;;5035871;28;20039;-86
2022/12/22 06:21:36;;;;;;;23.80;9.35;;;;;;;;;;5067130;28;20956;-87
2022/12/22 06:24:05;;;;;;;22.20;9.68;;;;;;;;;;5080401;28;20086;-87
2022/12/22 06:26:32;;;;;;;22.60;9.00;;;;;;;;;;5079192;28;20032;-87
2022/12/22 06:29:00;;;;;;;25.23;9.35;;;;;;;;;;5071156;28;20028;-88
2022/12/22 06:31:28;;;;;;;25.80;9.18;;;;;;;;;;5056734;28;20109;-89
2022/12/22 06:36:48;;;;;;;28.90;9.50;;;;;;;;;;5076988;28;20036;-88
2022/12/22 06:39:40;;;;;;;26.95;10.23;;;;;;;;;;5080147;28;20031;-89
2022/12/22 06:45:18;;;;;;;23.95;8.93;;;;;;;;;;5080554;28;20036;-88
2022/12/22 06:47:50;;;;;;;23.27;9.45;;;;;;;;;;5074311;28;20513;-88
2022/12/22 06:50:18;;;;;;;23.45;10.57;;;;;;;;;;5062069;28;20040;-88
2022/12/22 06:52:46;;;;;;;26.98;10.38;;;;;;;;;;5079498;28;20028;-87
2022/12/22 06:55:14;;;;;;;23.40;9.35;;;;;;;;;;5081946;28;20055;-88
2022/12/22 06:58:06;;;;;;;27.60;10.50;;;;;;;;;;5079219;28;20047;-88
2022/12/22 07:00:34;;;;;;;27.48;10.43;;;;;;;;;;5077318;28;20033;-88
2022/12/22 07:03:06;;;;;;;23.88;10.02;;;;;;;;;;5081581;28;20330;-88
2022/12/22 07:05:38;;;;;;;22.40;9.48;;;;;;;;;;5062749;28;20043;-88
2022/12/22 07:08:15;;;;;;;25.30;9.95;;;;;;;;;;5080514;28;20494;-88
2022/12/22 07:10:59;;;;;;;24.08;9.52;;;;;;;;;;5079674;28;20040;-89
2022/12/22 07:13:34;;;;;;;22.58;8.80;;;;;;;;;;5063199;28;20044;-88
2022/12/22 07:16:05;;;;;;;23.77;9.73;;;;;;;;;;5078384;28;20044;-88
2022/12/22 07:18:40;;;;;;;25.15;9.98;;;;;;;;;;5077813;28;20028;-88
2022/12/22 07:21:11;;;;;;;23.77;10.05;;;;;;;;;;5061242;28;20064;-88
2022/12/22 07:23:39;;;;;;;27.30;10.48;;;;;;;;;;5063423;28;20033;-87
2022/12/22 07:26:07;;;;;;;23.83;9.95;;;;;;;;;;5078811;28;20067;-87
2022/12/22 07:28:36;;;;;;;28.45;9.70;;;;;;;;;;5060653;28;20482;-88
2022/12/22 07:31:05;;;;;;;26.10;10.88;;;;;;;;;;5073817;28;20071;-88
2022/12/22 07:33:32;;;;;;;23.67;9.65;;;;;;;;;;5058057;28;20044;-88
2022/12/22 07:36:05;;;;;;;22.55;9.70;;;;;;;;;;5050803;28;20049;-87
2022/12/22 07:38:56;;;;;;;27.50;10.23;;;;;;;;;;5068910;28;20141;-88
2022/12/22 07:44:16;;;;;;;23.20;9.82;;;;;;;;;;5067609;28;20922;-88
2022/12/22 07:46:44;;;;;;;23.60;10.07;;;;;;;;;;5072895;28;20036;-87
2022/12/22 07:52:04;;;;;;;25.60;10.10;;;;;;;;;;5065762;28;20036;-88
2022/12/22 07:54:34;;;;;;;23.38;9.88;;;;;;;;;;5064194;28;20127;-87
2022/12/22 07:57:08;;;;;;;24.33;10.00;;;;;;;;;;5078899;28;20441;-88
2022/12/22 07:59:36;;;;;;;25.27;10.13;;;;;;;;;;5065020;28;20132;-88
2022/12/22 08:02:28;;;;;;;25.60;10.02;;;;;;;;;;5068453;28;20472;-87
2022/12/22 08:05:22;;;;;;;20.40;9.38;;;;;;;;;;5082990;28;20093;-87
2022/12/22 08:07:51;;;;;;;24.70;9.65;;;;;;;;;;5082543;28;20047;-88
2022/12/22 08:10:19;;;;;;;22.92;9.38;;;;;;;;;;5081345;28;20064;-87
2022/12/22 08:12:46;;;;;;;22.40;9.57;;;;;;;;;;5064751;28;20708;-88
2022/12/22 08:15:14;;;;;;;23.20;9.38;;;;;;;;;;5064707;28;20135;-87
2022/12/22 08:17:46;;;;;;;23.75;9.52;;;;;;;;;;5079011;28;20147;-88
2022/12/22 08:20:38;;;;;;;24.90;9.90;;;;;;;;;;5081296;28;20032;-87
2022/12/22 08:23:31;;;;;;;25.90;10.40;;;;;;;;;;5059328;28;20386;-87
2022/12/22 08:26:13;;;;;;;27.05;10.18;;;;;;;;;;5062177;28;20035;-87
2022/12/22 08:28:49;;;;;;;23.60;8.93;;;;;;;;;;5063769;28;20072;-87
2022/12/22 08:31:17;;;;;;;24.90;10.38;;;;;;;;;;5065531;28;20047;-88
2022/12/22 08:33:47;;;;;;;27.80;10.77;;;;;;;;;;5062758;28;20047;-87
2022/12/22 08:36:42;;;;;;;25.30;9.88;;;;;;;;;;5066103;28;20028;-87
2022/12/22 08:39:37;;;;;;;23.40;9.75;;;;;;;;;;5082209;28;20055;-87
2022/12/22 08:42:07;;;;;;;23.48;8.57;;;;;;;;;;5062953;28;20543;-87
2022/12/22 08:45:00;;;;;;;24.73;9.75;;;;;;;;;;5075690;28;20036;-85
2022/12/22 08:47:52;;;;;;;25.65;9.48;;;;;;;;;;5057898;28;20107;-86
2022/12/22 08:50:25;;;;;;;22.98;9.32;;;;;;;;;;5080675;28;20048;-85
2022/12/22 08:52:52;;;;;;;22.73;9.27;;;;;;;;;;5062914;28;20477;-86
2022/12/22 08:55:20;;;;;;;23.27;9.00;;;;;;;;;;5080650;28;20040;-86
2022/12/22 08:57:52;;;;;;;21.38;8.88;;;;;;;;;;5080281;28;20043;-86
2022/12/22 09:00:23;;;;;;;23.13;10.27;;;;;;;;;;5082531;28;20047;-86
2022/12/22 09:02:51;;;;;;;20.52;8.07;;;;;;;;;;5079585;28;20036;-86
2022/12/22 09:05:24;;;;;;;20.52;9.35;;;;;;;;;;5074698;28;20033;-86
2022/12/22 09:07:52;;;;;;;20.95;8.23;;;;;;;;;;5081695;28;21626;-86
2022/12/22 09:10:20;;;;;;;20.83;8.10;;;;;;;;;;5081342;28;20072;-85
2022/12/22 09:12:58;;;;;;;18.05;8.02;;;;;;;;;;5063187;28;20037;-86
2022/12/22 09:15:30;;;;;;;21.17;8.95;;;;;;;;;;5061578;28;20110;-86
2022/12/22 09:17:58;;;;;;;22.67;8.07;;;;;;;;;;5059439;28;20126;-86
2022/12/22 09:20:31;;;;;;;17.38;7.95;;;;;;;;;;5080500;28;20044;-86
2022/12/22 09:22:59;;;;;;;21.52;8.48;;;;;;;;;;5080016;28;20037;-85
2022/12/22 09:25:26;;;;;;;18.23;7.93;;;;;;;;;;5077239;28;20043;-86
2022/12/22 09:27:54;;;;;;;20.88;8.02;;;;;;;;;;5078354;28;20424;-86
2022/12/22 09:30:26;;;;;;;19.70;8.27;;;;;;;;;;5046176;28;20032;-86
2022/12/22 09:32:58;;;;;;;19.80;7.13;;;;;;;;;;5060826;28;20079;-85
2022/12/22 09:35:26;;;;;;;18.23;7.45;;;;;;;;;;5081131;28;20044;-86
2022/12/22 09:37:58;;;;;;;17.30;8.20;;;;;;;;;;5079768;28;20115;-86
2022/12/22 09:40:26;;;;;;;22.55;8.90;;;;;;;;;;5072086;28;20068;-85
2022/12/22 09:42:54;;;;;;;19.88;7.78;;;;;;;;;;5059222;28;20393;-86
2022/12/22 09:45:22;;;;;;;21.02;7.57;;;;;;;;;;5060303;28;20075;-86
2022/12/22 09:48:14;;;;;;;19.70;8.27;;;;;;;;;;5077637;28;20406;-85
2022/12/22 09:50:42;;;;;;;22.27;7.90;;;;;;;;;;5080529;28;20051;-86
2022/12/22 09:53:21;;;;;;;19.83;7.85;;;;;;;;;;5080285;28;20039;-86
2022/12/22 09:55:49;;;;;;;26.38;9.35;;;;;;;;;;5072212;28;20040;-85
2022/12/22 09:58:31;;;;;;;22.88;9.30;;;;;;;;;;5077576;28;20516;-86
2022/12/22 10:01:04;;;;;;;22.95;9.05;;;;;;;;;;5078159;28;20065;-86
2022/12/22 10:03:44;;;;;;;22.58;8.63;;;;;;;;;;5074094;28;20040;-86
2022/12/22 10:06:52;;;;;;;28.73;9.52;;;;;;;;;;5077746;28;20085;-86
2022/12/22 10:09:25;;;;;;;26.50;8.85;;;;;;;;;;5078551;28;20105;-85
2022/12/22 10:12:20;;;;;;;26.92;10.07;;;;;;;;;;5077528;28;20486;-86
2022/12/22 10:14:53;;;;;;;27.88;10.30;;;;;;;;;;5079017;28;20044;-86
2022/12/22 10:17:30;;;;;;;34.42;10.50;;;;;;;;;;5078718;28;20063;-86
2022/12/22 10:20:28;;;;;;;30.42;10.13;;;;;;;;;;5087572;28;20127;-86
2022/12/22 10:23:19;;;;;;;33.38;10.77;;;;;;;;;;5003443;28;20201;-86
2022/12/22 10:25:55;;;;;;;34.83;10.43;;;;;;;;;;5015706;28;20423;-86
2022/12/22 10:28:46;;;;;;;31.23;10.18;;;;;;;;;;5018366;28;20050;-86
2022/12/22 10:32:03;;;;;;;33.17;9.70;;;;;;;;;;5017761;28;20038;-86
2022/12/22 10:34:30;;;;;;;36.80;10.25;;;;;;;;;;5007991;28;20071;-85
2022/12/22 10:37:30;;;;;;;25.75;9.45;;;;;;;;;;5019985;28;20038;-86
2022/12/22 10:40:32;;;;;;;29.27;9.52;;;;;;;;;;5015971;28;20144;-87
2022/12/22 10:43:02;;;;;;;28.55;9.90;;;;;;;;;;4982359;28;20101;-86
2022/12/22 10:45:30;;;;;;;31.08;9.20;;;;;;;;;;4966826;28;20046;-86
2022/12/22 10:47:58;;;;;;;29.65;10.88;;;;;;;;;;4967201;28;20047;-89
2022/12/22 10:50:26;;;;;;;32.38;10.20;;;;;;;;;;4947863;28;20461;-86
2022/12/22 10:52:58;;;;;;;27.20;9.85;;;;;;;;;;4971976;28;20046;-86
2022/12/22 10:55:28;;;;;;;27.73;10.32;;;;;;;;;;4984929;28;20050;-86
2022/12/22 10:58:14;;;;;;;30.13;10.18;;;;;;;;;;4981356;28;20086;-85
2022/12/22 11:00:43;;;;;;;35.05;10.23;;;;;;;;;;5003484;28;20122;-87
2022/12/22 11:03:13;;;;;;;25.60;8.45;;;;;;;;;;5006400;28;20042;-86
2022/12/22 11:05:50;;;;;;;27.67;9.93;;;;;;;;;;5001527;28;20049;-86
2022/12/22 11:08:19;;;;;;;31.98;9.98;;;;;;;;;;5000230;28;20052;-86
2022/12/22 11:11:21;;;;;;;30.05;9.63;;;;;;;;;;5005473;28;20544;-86
2022/12/22 11:13:58;;;;;;;26.13;10.02;;;;;;;;;;4992209;28;20051;-86
2022/12/22 11:16:54;;;;;;;31.80;9.70;;;;;;;;;;4993029;28;20077;-86
2022/12/22 11:19:45;;;;;;;33.63;10.23;;;;;;;;;;5038527;28;20405;-85
2022/12/22 11:22:38;;;;;;;30.30;10.32;;;;;;;;;;5073144;28;20037;-86
2022/12/22 11:25:25;;;;;;;27.45;9.05;;;;;;;;;;5069016;28;20048;-85
2022/12/22 11:28:16;;;;;;;27.50;9.15;;;;;;;;;;5091184;28;20036;-85
2022/12/22 11:31:03;;;;;;;29.00;10.43;;;;;;;;;;5084038;28;20048;-86
2022/12/22 11:33:40;;;;;;;34.33;10.57;;;;;;;;;;5092695;28;20058;-86
2022/12/22 11:36:28;;;;;;;31.23;11.15;;;;;;;;;;5073036;28;20036;-86
2022/12/22 11:39:21;;;;;;;29.75;10.18;;;;;;;;;;5090958;28;20036;-86
2022/12/22 11:42:05;;;;;;;31.48;10.25;;;;;;;;;;5044134;28;20051;-86
2022/12/22 11:44:49;;;;;;;34.10;12.70;;;;;;;;;;5066244;28;20036;-86
2022/12/22 11:47:25;;;;;;;29.30;10.35;;;;;;;;;;5081960;28;20440;-85
2022/12/22 11:50:14;;;;;;;30.00;10.45;;;;;;;;;;5068256;28;20733;-86
2022/12/22 11:53:40;;;;;;;46.17;18.02;;;;;;;;;;5060463;28;20113;-85
2022/12/22 11:56:17;;;;;;;30.00;11.82;;;;;;;;;;5076209;28;20040;-86
2022/12/22 11:59:19;;;;;;;44.58;17.45;;;;;;;;;;5086871;28;20033;-86
2022/12/22 12:02:20;;;;;;;26.58;10.07;;;;;;;;;;5021779;28;20475;-85
2022/12/22 12:05:14;;;;;;;31.13;10.90;;;;;;;;;;5006446;28;20073;-86
2022/12/22 12:07:48;;;;;;;30.23;11.18;;;;;;;;;;5013656;28;20456;-86
2022/12/22 12:10:27;;;;;;;65.88;25.50;;;;;;;;;;5022874;28;20419;-85
2022/12/22 12:13:27;;;;;;;27.35;10.80;;;;;;;;;;5022712;28;20042;-85
2022/12/22 12:16:35;;;;;;;50.42;18.77;;;;;;;;;;5029779;28;20053;-85
2022/12/22 12:19:32;;;;;;;28.67;10.52;;;;;;;;;;5027969;28;20115;-85
2022/12/22 12:22:04;;;;;;;24.70;9.55;;;;;;;;;;5030894;28;20050;-86
2022/12/22 12:24:57;;;;;;;29.08;10.32;;;;;;;;;;5021221;28;20046;-86
2022/12/22 12:28:10;;;;;;;25.92;9.57;;;;;;;;;;5035071;28;20069;-85
2022/12/22 12:31:04;;;;;;;23.70;9.07;;;;;;;;;;5013049;28;20068;-86
2022/12/22 12:33:50;;;;;;;26.48;8.57;;;;;;;;;;5014890;28;20038;-85
2022/12/22 12:36:46;;;;;;;20.02;8.00;;;;;;;;;;5031893;28;20526;-86
2022/12/22 12:39:27;;;;;;;17.58;7.65;;;;;;;;;;5086398;28;20036;-87
2022/12/22 12:42:29;;;;;;;22.67;8.32;;;;;;;;;;5084404;28;20039;-87
2022/12/22 12:44:58;;;;;;;18.90;7.75;;;;;;;;;;5045937;28;20096;-86
2022/12/22 12:47:34;;;;;;;20.40;7.43;;;;;;;;;;5085929;28;20398;-86
2022/12/22 12:50:33;;;;;;;21.67;7.63;;;;;;;;;;5090132;28;20038;-86
2022/12/22 12:53:07;;;;;;;18.17;7.97;;;;;;;;;;5080781;28;20123;-86
2022/12/22 12:55:37;;;;;;;19.77;8.20;;;;;;;;;;5087501;28;20118;-86
2022/12/22 12:58:11;;;;;;;20.20;7.53;;;;;;;;;;5079906;28;20148;-86
2022/12/22 13:00:38;;;;;;;20.23;7.82;;;;;;;;;;5067264;28;20039;-86
2022/12/22 13:03:28;;;;;;;20.27;7.53;;;;;;;;;;5085463;28;20029;-86
2022/12/22 13:06:50;;;;;;;18.50;7.82;;;;;;;;;;5083371;28;20033;-86
2022/12/22 13:09:20;;;;;;;21.13;8.82;;;;;;;;;;5077161;28;20084;-85
2022/12/22 13:12:51;;;;;;;17.27;7.85;;;;;;;;;;5066325;28;20126;-86
2022/12/22 13:15:34;;;;;;;18.45;8.30;;;;;;;;;;5020064;28;20038;-85
2022/12/22 13:18:32;;;;;;;17.88;8.00;;;;;;;;;;5010084;28;20053;-86
2022/12/22 13:21:15;;;;;;;18.00;7.30;;;;;;;;;;4999520;28;20141;-87
2022/12/22 13:24:22;;;;;;;24.65;10.38;;;;;;;;;;5010053;28;20117;-89
2022/12/22 13:26:54;;;;;;;18.73;8.93;;;;;;;;;;5020275;28;20458;-86
2022/12/22 13:29:34;;;;;;;21.20;9.05;;;;;;;;;;5020449;28;20136;-86
2022/12/22 13:32:34;;;;;;;22.20;7.13;;;;;;;;;;5013610;28;20037;-86
2022/12/22 13:35:25;;;;;;;17.98;8.50;;;;;;;;;;5017781;28;20060;-86
2022/12/22 13:37:58;;;;;;;21.17;7.75;;;;;;;;;;5007674;28;20061;-86
2022/12/22 13:40:38;;;;;;;18.20;7.30;;;;;;;;;;4976902;28;20156;-86
2022/12/22 13:43:14;;;;;;;14.65;5.78;;;;;;;;;;5023368;28;20053;-86
2022/12/22 13:45:49;;;;;;;15.70;6.50;;;;;;;;;;5026307;28;20483;-86
2022/12/22 13:48:46;;;;;;;18.95;5.97;;;;;;;;;;5047685;28;20125;-87
2022/12/22 13:51:31;;;;;;;13.57;5.20;;;;;;;;;;5053359;28;20115;-86
2022/12/22 13:54:07;;;;;;;12.48;4.57;;;;;;;;;;5052414;28;20032;-86
2022/12/22 13:56:42;;;;;;;15.13;4.85;;;;;;;;;;5091366;28;20047;-86
2022/12/22 13:59:25;;;;;;;15.60;4.40;;;;;;;;;;5079902;28;20090;-86
2022/12/22 14:02:01;;;;;;;16.98;5.60;;;;;;;;;;5075578;28;20116;-86
2022/12/22 14:04:29;;;;;;;11.38;4.30;;;;;;;;;;5084308;28;20064;-86
2022/12/22 14:06:56;;;;;;;16.83;4.50;;;;;;;;;;5064484;28;20074;-86
2022/12/22 14:09:28;;;;;;;11.15;4.10;;;;;;;;;;5084249;28;20128;-87
2022/12/22 14:11:59;;;;;;;12.50;4.78;;;;;;;;;;5087077;28;20036;-87
2022/12/22 14:14:36;;;;;;;11.02;4.47;;;;;;;;;;5064304;28;20058;-86
2022/12/22 14:17:32;;;;;;;15.48;4.32;;;;;;;;;;5065703;28;20040;-86
2022/12/22 14:20:14;;;;;;;12.68;4.55;;;;;;;;;;5083055;28;20040;-86
2022/12/22 14:22:54;;;;;;;13.85;4.13;;;;;;;;;;5045101;28;20044;-86
2022/12/22 14:25:53;;;;;;;10.48;4.65;;;;;;;;;;5075001;28;20039;-86
2022/12/22 14:28:26;;;;;;;15.85;4.72;;;;;;;;;;5020829;28;20555;-86
2022/12/22 14:30:59;;;;;;;13.93;4.47;;;;;;;;;;5012898;28;20061;-86
2022/12/22 14:33:33;;;;;;;17.20;4.75;;;;;;;;;;5008707;28;20053;-86
2022/12/22 14:36:15;;;;;;;17.02;4.75;;;;;;;;;;5017801;28;20050;-86
2022/12/22 14:38:48;;;;;;;14.60;4.78;;;;;;;;;;5020834;28;20069;-86
2022/12/22 14:41:53;;;;;;;14.90;5.35;;;;;;;;;;4999158;28;20601;-86
2022/12/22 14:44:32;;;;;;;49.90;19.25;;;;;;;;;;4991902;28;20145;-86
2022/12/22 14:47:10;;;;;;;27.02;11.70;;;;;;;;;;5007848;28;20046;-86
2022/12/22 14:50:18;;;;;;;20.65;6.97;;;;;;;;;;5021512;28;20396;-86
2022/12/22 14:53:12;;;;;;;20.38;7.00;;;;;;;;;;4958953;28;20045;-88
2022/12/22 14:55:47;;;;;;;23.70;6.85;;;;;;;;;;4954443;28;20089;-86
2022/12/22 14:58:20;;;;;;;14.23;5.07;;;;;;;;;;4957573;28;20498;-86
2022/12/22 15:01:14;;;;;;;13.52;5.35;;;;;;;;;;4961941;28;20054;-86
2022/12/22 15:03:44;;;;;;;14.80;5.07;;;;;;;;;;4945946;28;20058;-86
2022/12/22 15:06:24;;;;;;;13.82;5.13;;;;;;;;;;4974918;28;20050;-86
2022/12/22 15:09:05;;;;;;;20.58;7.63;;;;;;;;;;4989555;28;20061;-86
2022/12/22 15:12:04;;;;;;;20.23;7.75;;;;;;;;;;4987021;28;20062;-89
2022/12/22 15:14:35;;;;;;;17.27;6.88;;;;;;;;;;4988810;28;20089;-88
2022/12/22 15:17:21;;;;;;;13.60;5.82;;;;;;;;;;4990895;28;20079;-87
2022/12/22 15:19:50;;;;;;;14.18;5.47;;;;;;;;;;4976975;28;20066;-88
2022/12/22 15:22:42;;;;;;;13.50;5.40;;;;;;;;;;5006304;28;20062;-88
2022/12/22 15:25:13;;;;;;;14.13;5.60;;;;;;;;;;5067406;28;20108;-87
2022/12/22 15:27:40;;;;;;;11.98;4.85;;;;;;;;;;5059219;28;20067;-88
2022/12/22 15:30:15;;;;;;;14.05;4.93;;;;;;;;;;5084363;28;20166;-88
2022/12/22 15:32:43;;;;;;;9.27;4.13;;;;;;;;;;5071827;28;20509;-88
2022/12/22 15:35:38;;;;;;;12.70;4.70;;;;;;;;;;5089336;28;20068;-87
2022/12/22 15:38:16;;;;;;;17.27;5.25;;;;;;;;;;5081733;28;20069;-87
2022/12/22 15:40:45;;;;;;;14.60;5.30;;;;;;;;;;5061793;28;20519;-88
2022/12/22 15:43:18;;;;;;;16.92;5.53;;;;;;;;;;5062865;28;20498;-87
2022/12/22 15:46:14;;;;;;;12.18;5.05;;;;;;;;;;5081930;28;20111;-88
2022/12/22 15:48:42;;;;;;;13.35;5.47;;;;;;;;;;5082274;28;20518;-88
2022/12/22 15:51:21;;;;;;;17.63;4.90;;;;;;;;;;5073703;28;20087;-89
2022/12/22 15:53:49;;;;;;;18.15;6.97;;;;;;;;;;5039760;28;20190;-87
2022/12/22 15:56:20;;;;;;;18.88;6.35;;;;;;;;;;5059752;28;20105;-89
2022/12/22 15:58:52;;;;;;;18.70;6.50;;;;;;;;;;5064355;28;20507;-89
2022/12/22 16:01:20;;;;;;;15.25;6.05;;;;;;;;;;5066597;28;20165;-89
2022/12/22 16:03:56;;;;;;;14.40;5.95;;;;;;;;;;5069437;28;20055;-88
2022/12/22 16:06:24;;;;;;;14.63;5.82;;;;;;;;;;5061457;28;20477;-88
2022/12/22 16:09:22;;;;;;;17.98;6.03;;;;;;;;;;5070515;28;20031;-89
2022/12/22 16:11:55;;;;;;;22.73;5.97;;;;;;;;;;5082122;28;20086;-89
2022/12/22 16:14:23;;;;;;;14.18;6.15;;;;;;;;;;5077630;28;20482;-88
2022/12/22 16:17:22;;;;;;;24.05;8.20;;;;;;;;;;5085982;28;20362;-88
2022/12/22 16:19:51;;;;;;;19.98;6.93;;;;;;;;;;5078464;28;20401;-88
2022/12/22 16:22:28;;;;;;;18.13;5.88;;;;;;;;;;5063455;28;20040;-87
2022/12/22 16:25:08;;;;;;;18.08;5.82;;;;;;;;;;5078718;28;20032;-87
2022/12/22 16:27:36;;;;;;;17.80;5.72;;;;;;;;;;5082842;28;20090;-87
2022/12/22 16:30:05;;;;;;;20.52;6.07;;;;;;;;;;5083662;28;20063;-87
2022/12/22 16:32:32;;;;;;;20.63;7.15;;;;;;;;;;5063543;28;20039;-87
2022/12/22 16:35:09;;;;;;;76.40;27.55;;;;;;;;;;5082044;28;20033;-87
2022/12/22 16:37:37;;;;;;;42.35;18.27;;;;;;;;;;5077111;28;20110;-86
2022/12/22 16:40:05;;;;;;;22.15;10.15;;;;;;;;;;5079425;28;20040;-87
2022/12/22 16:43:03;;;;;;;25.30;9.18;;;;;;;;;;5063659;28;20044;-87
2022/12/22 16:45:55;;;;;;;19.58;9.30;;;;;;;;;;5080278;28;20124;-87
2022/12/22 16:48:54;;;;;;;27.90;8.32;;;;;;;;;;5083221;28;20068;-87
2022/12/22 16:51:32;;;;;;;20.73;7.75;;;;;;;;;;5063948;28;20044;-88
2022/12/22 16:54:00;;;;;;;18.10;6.18;;;;;;;;;;5061098;28;20050;-88
2022/12/22 16:56:29;;;;;;;15.80;6.05;;;;;;;;;;5078757;28;20086;-87
2022/12/22 16:59:03;;;;;;;22.55;7.43;;;;;;;;;;5062504;28;20048;-87
2022/12/22 17:01:44;;;;;;;26.60;8.00;;;;;;;;;;5062811;28;20386;-87
2022/12/22 17:04:34;;;;;;;23.95;8.45;;;;;;;;;;5064401;28;20040;-86
2022/12/22 17:07:12;;;;;;;26.13;8.57;;;;;;;;;;5077554;28;20036;-87
2022/12/22 17:09:51;;;;;;;21.10;6.93;;;;;;;;;;5060994;28;20035;-87
2022/12/22 17:12:23;;;;;;;20.27;6.57;;;;;;;;;;5082046;28;20117;-87
2022/12/22 17:15:20;;;;;;;26.63;8.95;;;;;;;;;;5064167;28;20120;-87
2022/12/22 17:17:48;;;;;;;24.13;7.20;;;;;;;;;;5075261;28;20032;-87
2022/12/22 17:20:19;;;;;;;22.00;6.50;;;;;;;;;;5065814;28;20451;-87
2022/12/22 17:22:59;;;;;;;20.00;5.78;;;;;;;;;;5074134;28;20044;-87
2022/12/22 17:25:32;;;;;;;20.48;6.85;;;;;;;;;;5077593;28;20490;-87
2022/12/22 17:28:01;;;;;;;20.95;7.25;;;;;;;;;;5078045;28;20064;-87
2022/12/22 17:30:34;;;;;;;24.70;7.63;;;;;;;;;;5055301;28;20066;-87
2022/12/22 17:33:07;;;;;;;19.85;6.68;;;;;;;;;;5063412;28;20064;-87
2022/12/22 17:35:42;;;;;;;16.75;5.82;;;;;;;;;;5082263;28;20123;-87
2022/12/22 17:38:16;;;;;;;18.38;6.00;;;;;;;;;;5080774;28;20039;-88
2022/12/22 17:40:48;;;;;;;23.73;7.80;;;;;;;;;;5073647;28;20036;-87
2022/12/22 17:43:18;;;;;;;18.05;6.88;;;;;;;;;;5053583;28;20127;-87
2022/12/22 17:45:51;;;;;;;19.33;8.43;;;;;;;;;;5081980;28;20119;-87
2022/12/22 17:48:18;;;;;;;20.65;5.63;;;;;;;;;;5062636;28;20036;-87
2022/12/22 17:50:48;;;;;;;18.50;5.90;;;;;;;;;;5064059;28;20032;-87
2022/12/22 17:53:20;;;;;;;16.77;5.22;;;;;;;;;;5080377;28;20394;-87
2022/12/22 17:55:48;;;;;;;12.98;4.97;;;;;;;;;;5080826;28;20081;-87
2022/12/22 17:58:34;;;;;;;19.98;5.50;;;;;;;;;;5071256;28;20041;-87
2022/12/22 18:01:02;;;;;;;23.45;5.82;;;;;;;;;;5057558;28;20036;-88
2022/12/22 18:03:34;;;;;;;13.55;5.68;;;;;;;;;;5049394;28;20411;-87
2022/12/22 18:06:03;;;;;;;19.55;5.82;;;;;;;;;;5049260;28;20076;-87
2022/12/22 18:08:30;;;;;;;18.45;5.43;;;;;;;;;;5064171;28;20036;-87
2022/12/22 18:11:00;;;;;;;17.23;6.05;;;;;;;;;;5077283;28;20500;-88
2022/12/22 18:13:28;;;;;;;21.35;6.43;;;;;;;;;;5096248;28;20045;-87
2022/12/22 18:15:56;;;;;;;18.65;5.75;;;;;;;;;;5083780;28;20044;-88
2022/12/22 18:18:24;;;;;;;20.52;6.88;;;;;;;;;;5079630;28;20068;-87
2022/12/22 18:20:52;;;;;;;19.38;6.78;;;;;;;;;;5049765;28;20089;-87
2022/12/22 18:23:36;;;;;;;19.25;6.68;;;;;;;;;;5065788;28;20048;-88
2022/12/22 18:26:17;;;;;;;18.20;6.35;;;;;;;;;;5067869;28;20047;-87
2022/12/22 18:28:44;;;;;;;18.60;6.15;;;;;;;;;;5089229;28;20051;-87
2022/12/22 18:31:12;;;;;;;20.88;7.38;;;;;;;;;;5068343;28;20068;-87
2022/12/22 18:33:40;;;;;;;30.63;8.30;;;;;;;;;;5034616;28;20032;-87
2022/12/22 18:39:19;;;;;;;16.25;6.53;;;;;;;;;;5067271;28;20032;-87
2022/12/22 18:41:47;;;;;;;20.23;5.75;;;;;;;;;;5064359;28;20036;-87
2022/12/22 18:44:20;;;;;;;18.25;7.22;;;;;;;;;;5087140;28;20040;-87
2022/12/22 18:46:48;;;;;;;17.98;6.40;;;;;;;;;;5054711;28;20073;-87
2022/12/22 18:49:16;;;;;;;13.25;6.20;;;;;;;;;;5071933;28;20494;-87
2022/12/22 18:51:44;;;;;;;19.52;7.13;;;;;;;;;;5071133;28;20055;-87
2022/12/22 18:54:21;;;;;;;20.15;5.97;;;;;;;;;;5047961;28;20046;-87
2022/12/22 18:57:17;;;;;;;13.18;5.95;;;;;;;;;;5083609;28;20024;-87
2022/12/22 18:59:45;;;;;;;24.55;6.43;;;;;;;;;;5048151;28;20047;-87
2022/12/22 19:02:26;;;;;;;20.15;5.93;;;;;;;;;;5063678;28;20056;-88
2022/12/22 19:04:55;;;;;;;19.58;6.65;;;;;;;;;;5044004;28;21224;-86
2022/12/22 19:07:28;;;;;;;22.08;7.22;;;;;;;;;;5073783;28;20560;-87
2022/12/22 19:09:56;;;;;;;20.42;7.15;;;;;;;;;;5073549;28;20067;-87
2022/12/22 19:12:26;;;;;;;19.23;7.93;;;;;;;;;;5070211;28;20047;-87
2022/12/22 19:15:03;;;;;;;22.40;8.50;;;;;;;;;;5074590;28;20036;-87
2022/12/22 19:17:30;;;;;;;19.35;8.18;;;;;;;;;;5060837;28;20064;-87